Time;durP1;ratioP1;P1;durP2;ratioP2;P2;SDS_P1;SDS_P2;PMS_P1;PMS_P2;Temp;Humidity;BMP_temperature;BMP_pressure;BME280_temperature;BME280_humidity;BME280_pressure;Samples;Min_cycle;Max_cycle;Signal;HPM_P1;HPM_P2
2022/04/15 00:01:18;;;;;;;23.10;21.30;;;;;;;-141.48;100.00;69781.59;5210353;28;20099;-63
2022/04/15 00:03:50;;;;;;;20.13;18.42;;;;;;;-141.48;100.00;69781.59;5209804;28;20032;-63
2022/04/15 00:06:21;;;;;;;26.95;24.45;;;;;;;-141.48;100.00;69781.59;5210106;28;20506;-64
2022/04/15 00:08:52;;;;;;;22.50;20.58;;;;;;;-141.48;100.00;69781.59;5210019;28;20029;-63
2022/04/15 00:11:23;;;;;;;23.50;21.02;;;;;;;-141.48;100.00;69781.59;5209919;28;20130;-63
2022/04/15 00:13:53;;;;;;;25.20;22.95;;;;;;;-141.48;100.00;69781.59;5209714;28;20021;-64
2022/04/15 00:16:24;;;;;;;24.25;21.98;;;;;;;-141.48;100.00;69781.59;5210298;28;20126;-63
2022/04/15 00:18:54;;;;;;;24.73;22.63;;;;;;;-141.48;100.00;69781.59;5209859;28;20131;-63
2022/04/15 00:21:24;;;;;;;27.58;25.17;;;;;;;-141.48;100.00;69781.59;5209723;28;20049;-65
2022/04/15 00:23:56;;;;;;;23.80;21.98;;;;;;;-141.48;100.00;69781.59;5209479;28;20028;-63
2022/04/15 00:26:27;;;;;;;25.52;22.60;;;;;;;-141.48;100.00;69781.59;5209787;28;20028;-63
2022/04/15 00:28:58;;;;;;;26.23;21.45;;;;;;;-141.48;100.00;69781.59;5209655;28;20448;-63
2022/04/15 00:31:28;;;;;;;26.23;24.02;;;;;;;-141.48;100.00;69781.59;5209766;28;20558;-64
2022/04/15 00:33:58;;;;;;;26.10;23.95;;;;;;;-141.48;100.00;69781.59;5209282;28;20017;-64
2022/04/15 00:36:29;;;;;;;25.58;23.42;;;;;;;-141.48;100.00;69781.59;5209857;28;20024;-64
2022/04/15 00:39:00;;;;;;;26.75;24.52;;;;;;;-141.48;100.00;69781.59;5209486;28;20218;-63
2022/04/15 00:41:30;;;;;;;26.02;23.58;;;;;;;-141.48;100.00;69781.59;5209585;28;20059;-65
2022/04/15 00:44:01;;;;;;;26.42;23.92;;;;;;;-141.48;100.00;69781.59;5208986;28;20116;-63
2022/04/15 00:46:31;;;;;;;27.08;24.38;;;;;;;-141.48;100.00;69781.59;5209435;28;20025;-64
2022/04/15 00:49:01;;;;;;;23.05;21.25;;;;;;;-141.48;100.00;69781.59;5227177;28;20099;-64
2022/04/15 00:51:35;;;;;;;24.60;22.65;;;;;;;-141.48;100.00;69781.59;5209091;28;20033;-61
2022/04/15 00:54:07;;;;;;;27.85;25.23;;;;;;;-141.48;100.00;69781.59;5208847;28;20032;-62
2022/04/15 00:56:40;;;;;;;27.02;24.75;;;;;;;-141.48;100.00;69781.59;5209282;28;20086;-62
2022/04/15 00:59:12;;;;;;;29.27;26.83;;;;;;;-141.48;100.00;69781.59;5209068;28;20394;-62
2022/04/15 01:01:43;;;;;;;26.95;24.52;;;;;;;-141.48;100.00;69781.59;5226499;28;20056;-63
2022/04/15 01:04:18;;;;;;;30.40;27.58;;;;;;;-141.48;100.00;69781.59;5208593;28;20458;-62
2022/04/15 01:06:50;;;;;;;28.85;26.40;;;;;;;-141.48;100.00;69781.59;5208931;28;20029;-61
2022/04/15 01:09:22;;;;;;;27.00;23.30;;;;;;;-141.48;100.00;69781.59;5208303;28;20033;-63
2022/04/15 01:11:54;;;;;;;29.92;27.05;;;;;;;-141.48;100.00;69781.59;5208414;28;20037;-61
2022/04/15 01:14:27;;;;;;;31.35;28.58;;;;;;;-141.48;100.00;69781.59;5208190;28;20029;-62
2022/04/15 01:16:58;;;;;;;33.35;30.45;;;;;;;-141.48;100.00;69781.59;5208371;28;20021;-64
2022/04/15 01:19:29;;;;;;;34.83;31.42;;;;;;;-141.48;100.00;69781.59;5208245;28;20031;-64
2022/04/15 01:22:02;;;;;;;29.83;27.13;;;;;;;-141.48;100.00;69781.59;5208432;28;20021;-65
2022/04/15 01:24:33;;;;;;;33.17;30.10;;;;;;;-141.48;100.00;69781.59;5208311;28;20091;-64
2022/04/15 01:27:04;;;;;;;34.55;31.10;;;;;;;-141.48;100.00;69781.59;5208249;28;20446;-64
2022/04/15 01:29:39;;;;;;;29.80;26.75;;;;;;;-141.48;100.00;69781.59;5208124;28;20031;-65
2022/04/15 01:32:09;;;;;;;36.35;31.52;;;;;;;-141.48;100.00;69781.59;5208236;28;20025;-64
2022/04/15 01:34:40;;;;;;;32.40;29.48;;;;;;;-141.48;100.00;69781.59;5207710;28;20032;-62
2022/04/15 01:37:14;;;;;;;35.17;31.73;;;;;;;-141.48;100.00;69781.59;5225970;28;20028;-63
2022/04/15 01:39:46;;;;;;;34.70;31.38;;;;;;;-141.48;100.00;69781.59;5225761;28;20088;-62
2022/04/15 01:42:17;;;;;;;37.63;34.00;;;;;;;-141.48;100.00;69781.59;5225945;28;20029;-63
2022/04/15 01:44:48;;;;;;;39.10;35.47;;;;;;;-141.48;100.00;69781.59;5207188;28;20382;-64
2022/04/15 01:47:19;;;;;;;36.05;32.75;;;;;;;-141.48;100.00;69781.59;5225348;28;20035;-63
2022/04/15 01:49:49;;;;;;;38.28;34.92;;;;;;;-141.48;100.00;69781.59;5207115;28;20056;-63
2022/04/15 01:52:20;;;;;;;36.05;32.47;;;;;;;-141.48;100.00;69781.59;5207730;28;20029;-63
2022/04/15 01:54:50;;;;;;;45.33;41.17;;;;;;;-141.48;100.00;69781.59;5207093;28;20021;-62
2022/04/15 01:57:21;;;;;;;40.47;37.00;;;;;;;-141.48;100.00;69781.59;5207493;28;20060;-63
2022/04/15 01:59:51;;;;;;;39.10;35.25;;;;;;;-141.48;100.00;69781.59;5225317;28;20040;-63
2022/04/15 02:02:22;;;;;;;41.13;37.17;;;;;;;-141.48;100.00;69781.59;5207550;28;20491;-62
2022/04/15 02:04:53;;;;;;;42.38;38.47;;;;;;;-141.48;100.00;69781.59;5207060;28;20025;-63
2022/04/15 02:07:24;;;;;;;46.60;42.20;;;;;;;-141.48;100.00;69781.59;5207499;28;20483;-63
2022/04/15 02:09:54;;;;;;;42.85;39.17;;;;;;;-141.48;100.00;69781.59;5207551;28;20024;-63
2022/04/15 02:12:25;;;;;;;46.25;41.63;;;;;;;-141.48;100.00;69781.59;5207191;28;20083;-63
2022/04/15 02:14:55;;;;;;;41.95;37.85;;;;;;;-141.48;100.00;69781.59;5206994;28;20401;-62
2022/04/15 02:17:26;;;;;;;40.33;36.63;;;;;;;-141.48;100.00;69781.59;5225441;28;20163;-63
2022/04/15 02:19:56;;;;;;;44.63;40.95;;;;;;;-141.48;100.00;69781.59;5207454;28;20040;-63
2022/04/15 02:22:27;;;;;;;39.97;36.17;;;;;;;-141.48;100.00;69781.59;5207287;28;20021;-63
2022/04/15 02:24:57;;;;;;;38.53;34.97;;;;;;;-141.48;100.00;69781.59;5206691;28;20247;-63
2022/04/15 02:27:28;;;;;;;43.95;39.95;;;;;;;-141.48;100.00;69781.59;5207187;28;20025;-64
2022/04/15 02:29:59;;;;;;;41.38;37.13;;;;;;;-141.48;100.00;69781.59;5206968;28;20037;-63
2022/04/15 02:32:30;;;;;;;39.05;35.90;;;;;;;-141.48;100.00;69781.59;5224780;28;20528;-63
2022/04/15 02:35:01;;;;;;;42.50;38.30;;;;;;;-141.48;100.00;69781.59;5206761;28;20112;-63
2022/04/15 02:37:32;;;;;;;43.55;39.45;;;;;;;-141.48;100.00;69781.59;5207279;28;20531;-63
2022/04/15 02:40:04;;;;;;;44.05;39.40;;;;;;;-141.48;100.00;69781.59;5206913;28;20033;-62
2022/04/15 02:42:35;;;;;;;46.88;41.45;;;;;;;-141.48;100.00;69781.59;5207093;28;20052;-63
2022/04/15 02:45:07;;;;;;;43.58;39.80;;;;;;;-141.48;100.00;69781.59;5224431;28;20021;-63
2022/04/15 02:47:39;;;;;;;44.03;39.75;;;;;;;-141.48;100.00;69781.59;5206980;28;20090;-63
2022/04/15 02:50:10;;;;;;;41.17;36.88;;;;;;;-141.48;100.00;69781.59;5206912;28;20025;-63
2022/04/15 02:52:41;;;;;;;42.97;38.95;;;;;;;-141.48;100.00;69781.59;5207094;28;20029;-64
2022/04/15 02:55:12;;;;;;;44.58;40.40;;;;;;;-141.48;100.00;69781.59;5206466;28;20104;-63
2022/04/15 02:57:42;;;;;;;42.25;37.88;;;;;;;-141.48;100.00;69781.59;5224642;28;20166;-64
2022/04/15 03:00:14;;;;;;;41.22;37.28;;;;;;;-141.48;100.00;69781.59;5206984;28;20021;-64
2022/04/15 03:02:44;;;;;;;40.13;36.55;;;;;;;-141.48;100.00;69781.59;5209541;28;20047;-64
2022/04/15 03:05:15;;;;;;;42.80;38.50;;;;;;;-141.48;100.00;69781.59;5210294;28;20025;-63
2022/04/15 03:07:45;;;;;;;45.55;40.67;;;;;;;-141.48;100.00;69781.59;5210619;28;20482;-67
2022/04/15 03:10:16;;;;;;;43.45;39.03;;;;;;;-141.48;100.00;69781.59;5210578;28;20029;-63
2022/04/15 03:12:46;;;;;;;42.78;38.83;;;;;;;-141.48;100.00;69781.59;5210694;28;20067;-63
2022/04/15 03:15:20;;;;;;;44.10;39.38;;;;;;;-141.48;100.00;69781.59;5228245;28;20279;-63
2022/04/15 03:17:50;;;;;;;46.10;41.88;;;;;;;-141.48;100.00;69781.59;5210426;28;20021;-63
2022/04/15 03:20:21;;;;;;;44.50;40.20;;;;;;;-141.48;100.00;69781.59;5210405;28;20035;-63
2022/04/15 03:22:51;;;;;;;51.45;46.72;;;;;;;-141.48;100.00;69781.59;5210537;28;20025;-63
2022/04/15 03:25:22;;;;;;;44.22;40.10;;;;;;;-141.48;100.00;69781.59;5209953;28;20060;-63
2022/04/15 03:27:53;;;;;;;49.25;44.50;;;;;;;-141.48;100.00;69781.59;5210557;28;20390;-64
2022/04/15 03:30:23;;;;;;;50.22;45.38;;;;;;;-141.48;100.00;69781.59;5210193;28;20044;-63
2022/04/15 03:32:53;;;;;;;49.05;44.42;;;;;;;-141.48;100.00;69781.59;5210181;28;20025;-63
2022/04/15 03:35:24;;;;;;;48.50;43.28;;;;;;;-141.48;100.00;69781.59;5210181;28;20467;-63
2022/04/15 03:37:54;;;;;;;44.28;40.10;;;;;;;-141.48;100.00;69781.59;5210241;28;20028;-63
2022/04/15 03:40:25;;;;;;;46.88;42.58;;;;;;;-141.48;100.00;69781.59;5210407;28;20032;-63
2022/04/15 03:42:56;;;;;;;46.58;42.58;;;;;;;-141.48;100.00;69781.59;5228057;28;20086;-63
2022/04/15 03:45:26;;;;;;;47.03;42.80;;;;;;;-141.48;100.00;69781.59;5209870;28;20024;-63
2022/04/15 03:47:57;;;;;;;50.55;45.55;;;;;;;-141.48;100.00;69781.59;5209940;28;20510;-63
2022/04/15 03:50:28;;;;;;;44.10;40.22;;;;;;;-141.48;100.00;69781.59;5209892;28;20017;-64
2022/04/15 03:52:58;;;;;;;48.80;43.60;;;;;;;-141.48;100.00;69781.59;5209612;28;20032;-64
2022/04/15 03:55:29;;;;;;;49.30;44.50;;;;;;;-141.48;100.00;69781.59;5209845;28;20031;-63
2022/04/15 03:57:59;;;;;;;44.42;40.65;;;;;;;-141.48;100.00;69781.59;5210080;28;20025;-63
2022/04/15 04:00:30;;;;;;;48.30;43.17;;;;;;;-141.48;100.00;69781.59;5209500;28;20029;-63
2022/04/15 04:03:01;;;;;;;47.40;42.53;;;;;;;-141.48;100.00;69781.59;5209426;28;20021;-64
2022/04/15 04:05:31;;;;;;;48.75;43.92;;;;;;;-141.48;100.00;69781.59;5209585;28;20116;-64
2022/04/15 04:08:03;;;;;;;51.00;45.47;;;;;;;-141.48;100.00;69781.59;5209923;28;20036;-63
2022/04/15 04:11:16;;;;;;;57.30;51.47;;;;;;;-141.48;100.00;69781.59;5209795;28;20033;-64
2022/04/15 04:13:47;;;;;;;48.78;43.80;;;;;;;-141.48;100.00;69781.59;5208851;28;20474;-63
2022/04/15 04:17:16;;;;;;;49.17;44.20;;;;;;;-141.48;100.00;69781.59;5209539;28;20115;-63
2022/04/15 04:20:18;;;;;;;51.08;46.30;;;;;;;-141.48;100.00;69781.59;5209537;28;20067;-64
2022/04/15 04:23:05;;;;;;;50.05;45.30;;;;;;;-141.48;100.00;69781.59;5209668;28;20087;-64
2022/04/15 04:26:34;;;;;;;53.10;47.70;;;;;;;-141.48;100.00;69781.59;5209160;28;20116;-64
2022/04/15 04:30:03;;;;;;;51.33;46.30;;;;;;;-141.48;100.00;69781.59;5241845;22;20041;-80
2022/04/15 04:33:33;;;;;;;48.60;44.15;;;;;;;-141.48;100.00;69781.59;5223373;28;20028;-83
2022/04/15 04:37:02;;;;;;;50.50;45.67;;;;;;;-141.48;100.00;69781.59;5220327;28;20048;-82
2022/04/15 04:40:32;;;;;;;52.85;47.60;;;;;;;-141.48;100.00;69781.59;5220767;28;20283;-82
2022/04/15 04:44:01;;;;;;;49.78;45.30;;;;;;;-141.48;100.00;69781.59;5216689;28;20021;-81
2022/04/15 04:47:31;;;;;;;54.47;49.50;;;;;;;-141.48;100.00;69781.59;5217097;28;20033;-81
2022/04/15 04:50:53;;;;;;;49.55;44.63;;;;;;;-141.48;100.00;69781.59;5217831;28;20021;-82
2022/04/15 04:53:23;;;;;;;52.25;47.13;;;;;;;-141.48;100.00;69781.59;5218467;28;20022;-82
2022/04/15 04:56:52;;;;;;;52.03;46.67;;;;;;;-141.48;100.00;69781.59;5235245;28;20542;-79
2022/04/15 05:04:28;;;;;;;51.60;46.10;;;;;;;-141.48;100.00;69781.59;5239115;28;20032;-80
2022/04/15 05:07:57;;;;;;;61.92;55.05;;;;;;;-141.48;100.00;69781.59;5236233;28;20029;-82
2022/04/15 05:11:26;;;;;;;51.25;46.35;;;;;;;-141.48;100.00;69781.59;5236331;28;20028;-81
2022/04/15 05:14:54;;;;;;;48.85;44.45;;;;;;;-141.48;100.00;69781.59;5221043;28;20040;-82
2022/04/15 05:18:23;;;;;;;51.92;47.17;;;;;;;-141.48;100.00;69781.59;5215707;28;20033;-83
2022/04/15 05:21:44;;;;;;;59.40;53.33;;;;;;;-141.48;100.00;69781.59;5185398;28;20018;-79
2022/04/15 05:24:33;;;;;;;57.60;51.75;;;;;;;-141.48;100.00;69781.59;5212070;28;20025;-84
2022/04/15 05:28:03;;;;;;;53.60;48.83;;;;;;;-141.48;100.00;69781.59;5215159;28;20048;-82
2022/04/15 05:30:37;;;;;;;64.13;53.78;;;;;;;-141.48;100.00;69781.59;5215665;28;20408;-83
2022/04/15 05:33:24;;;;;;;61.58;55.72;;;;;;;-141.48;100.00;69781.59;5215366;28;20048;-83
2022/04/15 05:36:53;;;;;;;60.10;54.30;;;;;;;-141.48;100.00;69781.59;5214962;28;20026;-80
2022/04/15 05:40:50;;;;;;;60.10;54.10;;;;;;;-141.48;100.00;69781.59;5198074;28;20025;-82
2022/04/15 05:44:19;;;;;;;60.00;53.75;;;;;;;-141.48;100.00;69781.59;5196911;28;20052;-82
2022/04/15 05:47:44;;;;;;;58.95;52.58;;;;;;;-141.48;100.00;69781.59;5194446;28;20021;-84
2022/04/15 05:50:27;;;;;;;61.25;54.92;;;;;;;8.69;100.00;102024.72;5193044;28;20030;-80
2022/04/15 05:53:59;;;;;;;62.00;56.20;;;;;;;-141.48;100.00;69781.59;5209666;28;20053;-82
2022/04/15 05:57:27;;;;;;;58.55;52.55;;;;;;;-141.48;100.00;69781.59;5192402;28;20132;-79
2022/04/15 06:00:40;;;;;;;60.33;54.33;;;;;;;-141.48;100.00;69781.59;5210358;28;20052;-79
2022/04/15 06:03:23;;;;;;;57.55;52.08;;;;;;;-141.48;100.00;69781.59;5207803;28;20021;-80
2022/04/15 06:10:41;;;;;;;58.90;53.13;;;;;;;-141.48;100.00;69781.59;5225264;22;20487;-60
2022/04/15 06:14:10;;;;;;;61.00;54.88;;;;;;;-141.48;100.00;69781.59;5163816;28;20027;-60
2022/04/15 06:16:51;;;;;;;61.97;56.00;;;;;;;-141.48;100.00;69781.59;5147439;28;20030;-61
2022/04/15 06:19:46;;;;;;;67.72;61.15;;;;;;;-141.48;100.00;69781.59;5147665;28;20480;-61
2022/04/15 06:23:15;;;;;;;78.43;60.13;;;;;;;-141.48;100.00;69781.59;5147300;28;20113;-62
2022/04/15 06:26:43;;;;;;;67.67;60.60;;;;;;;-141.48;100.00;69781.59;5164299;28;20042;-60
2022/04/15 06:30:12;;;;;;;75.00;58.97;;;;;;;-141.48;100.00;69781.59;5147480;28;20307;-60
2022/04/15 06:32:44;;;;;;;68.20;61.17;;;;;;;-141.48;100.00;69781.59;5146920;28;20031;-65
2022/04/15 06:35:15;;;;;;;65.85;58.90;;;;;;;-141.48;100.00;69781.59;5147035;28;20125;-59
2022/04/15 06:38:08;;;;;;;67.72;59.25;;;;;;;-141.48;100.00;69781.59;5150672;28;20109;-59
2022/04/15 06:40:46;;;;;;;58.92;53.53;;;;;;;8.69;100.00;102024.72;5150099;28;20026;-59
2022/04/15 06:44:15;;;;;;;62.58;56.67;;;;;;;-141.48;100.00;69781.59;5167722;28;20037;-59
2022/04/15 06:47:44;;;;;;;61.20;55.17;;;;;;;-141.48;100.00;69781.59;5150685;28;20026;-61
2022/04/15 06:50:31;;;;;;;59.08;53.05;;;;;;;8.69;100.00;102024.72;5151061;28;20076;-59
2022/04/15 06:54:19;;;;;;;60.08;50.30;;;;;;;-141.48;100.00;69781.59;5168118;28;20041;-59
2022/04/15 06:57:48;;;;;;;52.92;46.97;;;;;;;-141.48;100.00;69781.59;5150005;28;20120;-60
2022/04/15 07:00:32;;;;;;;47.00;41.80;;;;;;;-141.48;100.00;69781.59;5150427;28;20026;-60
2022/04/15 07:03:55;;;;;;;47.92;43.10;;;;;;;-141.48;100.00;69781.59;5150244;28;20407;-60
2022/04/15 07:07:24;;;;;;;40.78;36.88;;;;;;;-141.48;100.00;69781.59;5149821;28;20499;-62
2022/04/15 07:10:53;;;;;;;38.95;34.78;;;;;;;-141.48;100.00;69781.59;5149913;28;20030;-59
2022/04/15 07:14:22;;;;;;;36.17;32.97;;;;;;;-141.48;100.00;69781.59;5167117;28;20500;-59
2022/04/15 07:17:51;;;;;;;35.47;32.03;;;;;;;-141.48;100.00;69781.59;5149947;28;20030;-59
2022/04/15 07:21:21;;;;;;;32.17;29.00;;;;;;;-141.48;100.00;69781.59;5149975;28;20097;-60
2022/04/15 07:24:50;;;;;;;;;;;;;;;-141.48;100.00;69781.59;5150372;28;20018;-59
2022/04/15 07:28:19;;;;;;;33.70;30.02;;;;;;;-141.48;100.00;69781.59;5165796;28;20285;-60
2022/04/15 07:31:48;;;;;;;34.75;30.95;;;;;;;-141.48;100.00;69781.59;5149559;28;20018;-59
2022/04/15 07:34:44;;;;;;;33.20;30.40;;;;;;;8.69;100.00;102024.72;5150094;28;20037;-58
2022/04/15 07:37:15;;;;;;;30.95;28.33;;;;;;;-141.48;100.00;69781.59;5150276;28;20307;-58
2022/04/15 07:39:46;;;;;;;29.73;27.55;;;;;;;-141.48;100.00;69781.59;5149662;28;20097;-58
2022/04/15 07:42:16;;;;;;;31.20;28.08;;;;;;;8.69;100.00;102024.72;5149436;28;20116;-57
2022/04/15 07:44:47;;;;;;;33.33;29.55;;;;;;;8.69;100.00;102024.72;5149390;28;20394;-56
2022/04/15 07:47:17;;;;;;;26.70;24.48;;;;;;;8.69;100.00;102024.72;5148718;28;20081;-57
2022/04/15 07:49:50;;;;;;;25.52;23.58;;;;;;;-141.48;100.00;69781.59;5149213;28;20018;-60
2022/04/15 07:52:20;;;;;;;31.30;24.98;;;;;;;-141.48;100.00;69781.59;5149038;28;20076;-60
2022/04/15 07:54:51;;;;;;;33.28;24.52;;;;;;;-141.48;100.00;69781.59;5148408;28;20488;-59
2022/04/15 07:57:26;;;;;;;27.35;24.52;;;;;;;-141.48;100.00;69781.59;5148708;28;20088;-60
2022/04/15 07:59:57;;;;;;;29.85;27.08;;;;;;;-141.48;100.00;69781.59;5148699;28;20028;-60
2022/04/15 08:02:34;;;;;;;29.10;26.25;;;;;;;-141.48;100.00;69781.59;5148844;28;20030;-60
2022/04/15 08:05:06;;;;;;;30.95;28.30;;;;;;;-141.48;100.00;69781.59;5148424;28;20492;-59
2022/04/15 08:07:40;;;;;;;27.45;25.10;;;;;;;-141.48;100.00;69781.59;5148640;28;20088;-59
2022/04/15 08:10:11;;;;;;;40.28;25.50;;;;;;;-141.48;100.00;69781.59;5148574;28;20033;-59
2022/04/15 08:12:41;;;;;;;26.88;24.30;;;;;;;-141.48;100.00;69781.59;5148751;28;20026;-58
2022/04/15 08:15:11;;;;;;;28.02;25.42;;;;;;;-141.48;100.00;69781.59;5148349;28;20058;-59
2022/04/15 08:17:42;;;;;;;28.55;26.00;;;;;;;-141.48;100.00;69781.59;5148454;28;20038;-60
2022/04/15 08:20:14;;;;;;;23.90;22.25;;;;;;;-141.48;100.00;69781.59;5148629;28;20139;-60
2022/04/15 08:22:44;;;;;;;23.95;22.10;;;;;;;-141.48;100.00;69781.59;5148742;28;20030;-60
2022/04/15 08:25:15;;;;;;;25.75;23.55;;;;;;;-141.48;100.00;69781.59;5148049;28;20396;-60
2022/04/15 08:27:45;;;;;;;24.15;21.98;;;;;;;-141.48;100.00;69781.59;5148457;28;20125;-58
2022/04/15 08:30:16;;;;;;;23.70;21.60;;;;;;;-141.48;100.00;69781.59;5148620;28;20125;-57
2022/04/15 08:32:51;;;;;;;22.90;21.00;;;;;;;-141.48;100.00;69781.59;5148748;28;20026;-59
2022/04/15 08:35:22;;;;;;;21.75;20.05;;;;;;;-141.48;100.00;69781.59;5149204;28;20456;-59
2022/04/15 08:37:53;;;;;;;24.08;21.83;;;;;;;-141.48;100.00;69781.59;5149365;28;20057;-59
2022/04/15 08:40:27;;;;;;;24.42;22.33;;;;;;;-141.48;100.00;69781.59;5148971;28;20030;-59
2022/04/15 08:42:58;;;;;;;25.23;23.08;;;;;;;-141.48;100.00;69781.59;5148997;28;20034;-58
2022/04/15 08:45:29;;;;;;;24.52;22.25;;;;;;;-141.48;100.00;69781.59;5148740;28;20023;-60
2022/04/15 08:48:01;;;;;;;22.92;21.08;;;;;;;-99.97;47.69;69781.59;5148996;28;20089;-60
2022/04/15 08:50:32;;;;;;;23.23;21.08;;;;;;;-141.48;100.00;69781.59;5149030;28;20050;-61
2022/04/15 08:53:04;;;;;;;21.58;19.67;;;;;;;-141.48;100.00;69781.59;5148650;28;20056;-59
2022/04/15 08:55:34;;;;;;;27.08;24.80;;;;;;;-141.48;100.00;69781.59;5148472;28;20033;-59
2022/04/15 08:58:05;;;;;;;27.98;25.45;;;;;;;-141.48;100.00;69781.59;5148949;28;20373;-60
2022/04/15 09:00:36;;;;;;;22.00;20.20;;;;;;;-141.48;100.00;69781.59;5149290;28;20037;-60
2022/04/15 09:03:07;;;;;;;21.80;20.02;;;;;;;-141.48;100.00;69781.59;5149373;28;20018;-61
2022/04/15 09:05:38;;;;;;;20.05;18.30;;;;;;;-141.48;100.00;69781.59;5149354;28;20026;-59
2022/04/15 09:08:10;;;;;;;21.33;19.55;;;;;;;-141.48;100.00;69781.59;5148727;28;20077;-59
2022/04/15 09:10:42;;;;;;;21.25;19.63;;;;;;;-141.48;100.00;69781.59;5148208;28;20381;-60
2022/04/15 09:13:23;;;;;;;19.40;17.48;;;;;;;-141.48;100.00;69781.59;5148140;28;20117;-59
2022/04/15 09:15:53;;;;;;;20.38;18.35;;;;;;;-141.48;100.00;69781.59;5148430;28;20022;-59
2022/04/15 09:18:29;;;;;;;22.48;20.25;;;;;;;-141.48;100.00;69781.59;5165837;28;20026;-63
2022/04/15 09:21:19;;;;;;;20.13;18.73;;;;;;;-141.48;100.00;69781.59;5148471;28;20034;-59
2022/04/15 09:23:55;;;;;;;20.27;18.13;;;;;;;10.36;100.00;102820.59;5148063;28;20113;-60
2022/04/15 09:26:26;;;;;;;17.73;16.10;;;;;;;10.33;100.00;102814.75;5147909;28;20427;-60
2022/04/15 09:29:02;;;;;;;18.65;17.23;;;;;;;-141.48;100.00;69781.59;5147990;28;20102;-60
2022/04/15 09:31:34;;;;;;;18.55;16.95;;;;;;;-141.48;100.00;69781.59;5148187;28;20396;-64
2022/04/15 09:34:07;;;;;;;19.60;17.73;;;;;;;-141.48;100.00;69781.59;5147842;28;20588;-60
2022/04/15 09:36:39;;;;;;;18.35;16.75;;;;;;;-141.48;100.00;69781.59;5147633;28;20022;-60
2022/04/15 09:39:14;;;;;;;19.00;17.50;;;;;;;10.33;100.00;102814.75;5147761;28;20038;-59
2022/04/15 09:41:54;;;;;;;18.15;16.55;;;;;;;10.94;100.00;89700.56;5147875;28;20018;-60
2022/04/15 09:44:31;;;;;;;16.45;15.10;;;;;;;-141.48;100.00;69781.59;5147935;28;20032;-58
2022/04/15 09:47:05;;;;;;;17.98;16.33;;;;;;;-141.48;100.00;69781.59;5172302;28;20395;-60
2022/04/15 09:49:35;;;;;;;16.67;15.30;;;;;;;-141.48;100.00;69781.59;5167712;28;20561;-60
2022/04/15 09:52:07;;;;;;;20.08;16.15;;;;;;;-141.48;100.00;69781.59;5185326;28;20051;-60
2022/04/15 09:54:40;;;;;;;18.08;16.58;;;;;;;-141.48;100.00;69781.59;5167970;28;20533;-61
2022/04/15 09:57:13;;;;;;;16.05;14.70;;;;;;;-141.48;100.00;69781.59;5167557;28;20109;-60
2022/04/15 09:59:49;;;;;;;18.30;16.73;;;;;;;-141.48;100.00;69781.59;5167456;28;20033;-61
2022/04/15 10:02:22;;;;;;;17.33;15.82;;;;;;;-141.48;100.00;69781.59;5167367;28;20022;-59
2022/04/15 10:04:53;;;;;;;15.88;14.52;;;;;;;-141.48;100.00;69781.59;5167355;28;20030;-61
2022/04/15 10:07:23;;;;;;;18.75;17.02;;;;;;;-141.48;100.00;69781.59;5167249;28;20065;-60
2022/04/15 10:09:54;;;;;;;17.85;16.25;;;;;;;-141.48;100.00;69781.59;5165944;28;20034;-60
2022/04/15 10:12:25;;;;;;;18.42;16.80;;;;;;;-141.48;100.00;69781.59;5166813;28;20509;-60
2022/04/15 10:14:57;;;;;;;18.65;16.88;;;;;;;-141.48;100.00;69781.59;5165910;28;20040;-60
2022/04/15 10:17:28;;;;;;;17.85;15.90;;;;;;;-141.48;100.00;69781.59;5166399;28;20103;-60
2022/04/15 10:20:00;;;;;;;17.30;15.63;;;;;;;-141.48;100.00;69781.59;5183995;28;20547;-59
2022/04/15 10:22:32;;;;;;;18.92;16.98;;;;;;;-141.48;100.00;69781.59;5166317;28;20034;-60
2022/04/15 10:25:34;;;;;;;15.40;13.88;;;;;;;-141.48;100.00;69781.59;5166220;28;20114;-59
2022/04/15 10:28:18;;;;;;;17.92;16.52;;;;;;;-141.48;100.00;69781.59;5166022;28;20034;-60
2022/04/15 10:30:52;;;;;;;17.73;15.57;;;;;;;-141.48;100.00;69781.59;5183755;23;20038;-59
2022/04/15 10:33:30;;;;;;;15.57;14.10;;;;;;;-141.48;100.00;69781.59;5201113;28;20022;-60
2022/04/15 10:36:22;;;;;;;16.45;15.07;;;;;;;-141.48;100.00;69781.59;5186682;28;20028;-61
2022/04/15 10:39:06;;;;;;;16.15;14.43;;;;;;;-141.48;100.00;69781.59;5204284;28;20037;-62
2022/04/15 10:41:42;;;;;;;19.52;16.55;;;;;;;-141.48;100.00;69781.59;5186475;28;20511;-60
2022/04/15 10:44:23;;;;;;;22.08;19.73;;;;;;;-141.48;100.00;69781.59;5186502;28;20036;-60
2022/04/15 10:47:20;;;;;;;18.20;16.40;;;;;;;-141.48;100.00;69781.59;5186456;28;20056;-60
2022/04/15 10:50:03;;;;;;;26.35;17.15;;;;;;;-141.48;100.00;69781.59;5183946;28;20522;-60
2022/04/15 10:52:35;;;;;;;17.52;15.98;;;;;;;-141.48;100.00;69781.59;5203402;28;20024;-63
2022/04/15 10:55:13;;;;;;;17.60;16.02;;;;;;;-141.48;100.00;69781.59;5202756;28;20051;-61
2022/04/15 10:57:46;;;;;;;15.18;14.10;;;;;;;-141.48;100.00;69781.59;5203016;28;20491;-61
2022/04/15 11:03:26;;;;;;;17.23;15.70;;;;;;;-141.48;100.00;69781.59;5204103;28;20475;-61
2022/04/15 11:05:59;;;;;;;15.07;13.97;;;;;;;-141.48;100.00;69781.59;5186685;28;20048;-60
2022/04/15 11:08:45;;;;;;;13.77;12.73;;;;;;;-141.48;100.00;69781.59;5202691;28;20272;-61
2022/04/15 11:11:18;;;;;;;17.95;16.40;;;;;;;-141.48;100.00;69781.59;5186628;28;20037;-61
2022/04/15 11:13:49;;;;;;;16.65;15.10;;;;;;;-141.48;100.00;69781.59;5186157;28;20040;-61
2022/04/15 11:16:22;;;;;;;20.23;17.27;;;;;;;-141.48;100.00;69781.59;5186579;28;20116;-61
2022/04/15 11:18:59;;;;;;;20.35;14.98;;;;;;;-141.48;100.00;69781.59;5202822;28;20017;-61
2022/04/15 11:21:32;;;;;;;15.35;13.95;;;;;;;-141.48;100.00;69781.59;5186146;28;20029;-61
2022/04/15 11:24:05;;;;;;;16.30;14.90;;;;;;;-141.48;100.00;69781.59;5207366;28;20566;-63
2022/04/15 11:26:43;;;;;;;15.98;14.65;;;;;;;-141.48;100.00;69781.59;5206305;28;20072;-60
2022/04/15 11:29:14;;;;;;;15.13;13.75;;;;;;;-141.48;100.00;69781.59;5190053;28;20057;-65
2022/04/15 11:31:49;;;;;;;15.50;14.43;;;;;;;-141.48;100.00;69781.59;5206392;28;20044;-62
2022/04/15 11:34:20;;;;;;;13.52;12.15;;;;;;;-141.48;100.00;69781.59;5206275;28;20490;-61
2022/04/15 11:36:56;;;;;;;14.10;12.80;;;;;;;-141.48;100.00;69781.59;5206455;28;20028;-61
2022/04/15 11:39:28;;;;;;;17.15;15.60;;;;;;;-141.48;100.00;69781.59;5190099;28;20072;-63
2022/04/15 11:41:59;;;;;;;16.00;14.50;;;;;;;-141.48;100.00;69781.59;5189577;28;20025;-61
2022/04/15 11:44:31;;;;;;;14.27;12.98;;;;;;;-141.48;100.00;69781.59;5207256;28;20025;-61
2022/04/15 11:47:21;;;;;;;13.07;12.18;;;;;;;-141.48;100.00;69781.59;5205727;28;20056;-61
2022/04/15 11:49:51;;;;;;;13.55;12.38;;;;;;;-141.48;100.00;69781.59;5206044;28;20148;-61
2022/04/15 11:52:24;;;;;;;14.07;12.70;;;;;;;-141.48;100.00;69781.59;5189122;28;20045;-61
2022/04/15 11:54:58;;;;;;;13.98;12.70;;;;;;;-141.48;100.00;69781.59;5205311;28;20037;-61
2022/04/15 11:57:31;;;;;;;15.18;13.70;;;;;;;-141.48;100.00;69781.59;5189210;28;20113;-61
2022/04/15 12:00:03;;;;;;;15.77;14.30;;;;;;;-141.48;100.00;69781.59;5205771;28;20196;-61
2022/04/15 12:02:33;;;;;;;15.57;14.15;;;;;;;-141.48;100.00;69781.59;5205888;28;20040;-62
2022/04/15 12:05:04;;;;;;;17.40;15.98;;;;;;;-141.48;100.00;69781.59;5204885;28;20033;-61
2022/04/15 12:07:35;;;;;;;16.25;14.70;;;;;;;-141.48;100.00;69781.59;5189071;28;20031;-62
2022/04/15 12:10:06;;;;;;;13.10;12.00;;;;;;;-141.48;100.00;69781.59;5189020;28;20032;-63
2022/04/15 12:12:37;;;;;;;15.00;13.73;;;;;;;-141.48;100.00;69781.59;5206034;28;20111;-61